Terminal Aerodrome Forecast
Issued by NWS

Home | Current Version | Previous Version | Text Only | Print | Product List | Glossary On
Versions: 1 2 3 4 5 6 7 8 9 10 11 12
000
FTUS44 KSJT 191120
TAFBBD
TAF
KBBD 191120Z 1912/2012 16006KT P6SM BKN018
      TEMPO 1912/1915 SCT018
     FM191500 17011G17KT P6SM SCT020
     FM191700 17012G18KT P6SM SCT040
     FM200200 15008KT P6SM BKN250
      AMD NOT SKED=

USA.gov is the U.S. government's official web portal to all federal, state and local government web resources and services.